createdAt,value
2018-09-22T00:02:18.700Z,90.30
2018-09-22T00:05:43.192Z,90.10
2018-09-22T00:09:10.542Z,90.20
2018-09-22T00:12:34.955Z,90.30
2018-09-22T00:15:59.406Z,90.40
2018-09-22T00:19:24.016Z,90.60
2018-09-22T00:22:48.432Z,94.50
2018-09-22T00:26:12.863Z,97.40
2018-09-22T00:29:37.280Z,99.90
2018-09-22T00:33:01.711Z,99.90
2018-09-22T00:36:26.128Z,99.90
2018-09-22T00:39:50.525Z,99.90
2018-09-22T00:43:15.120Z,99.90
2018-09-22T00:46:39.652Z,99.90
2018-09-22T00:50:05.156Z,99.90
2018-09-22T00:53:29.551Z,99.90
2018-09-22T00:56:53.952Z,99.90
2018-09-22T01:00:18.415Z,99.90
2018-09-22T01:03:42.900Z,99.90
2018-09-22T01:07:07.358Z,99.90
2018-09-22T01:10:32.174Z,99.90
2018-09-22T01:13:56.601Z,99.90
2018-09-22T01:17:21.016Z,99.90
2018-09-22T01:20:45.520Z,99.90
2018-09-22T01:24:10.002Z,99.90
2018-09-22T01:27:34.432Z,99.90
2018-09-22T01:30:58.880Z,99.90
2018-09-22T01:34:23.267Z,99.90
2018-09-22T01:37:47.721Z,99.90
2018-09-22T01:41:12.237Z,99.90
2018-09-22T01:44:36.858Z,99.90
2018-09-22T01:48:01.377Z,99.90
2018-09-22T01:51:25.846Z,99.90
2018-09-22T01:54:50.256Z,99.90
2018-09-22T01:58:14.696Z,99.90
2018-09-22T02:01:39.172Z,99.90
2018-09-22T02:05:03.718Z,99.90
2018-09-22T02:08:28.187Z,99.90
2018-09-22T02:11:52.647Z,99.90
2018-09-22T02:15:17.085Z,99.90
2018-09-22T02:18:41.510Z,99.90
2018-09-22T02:22:05.961Z,99.90
2018-09-22T02:25:30.406Z,99.70
2018-09-22T02:28:54.807Z,99.90
2018-09-22T02:32:19.266Z,99.80
2018-09-22T02:35:43.746Z,99.90
2018-09-22T02:39:10.279Z,99.40
2018-09-22T02:42:34.782Z,99.20
2018-09-22T02:45:59.204Z,99.00
2018-09-22T02:49:23.609Z,98.80
2018-09-22T02:52:47.996Z,98.50
2018-09-22T02:56:12.405Z,98.50
2018-09-22T02:59:36.830Z,98.70
2018-09-22T03:03:01.250Z,98.40
2018-09-22T03:06:25.652Z,98.60
2018-09-22T03:09:50.025Z,98.20
2018-09-22T03:13:14.453Z,98.10
2018-09-22T03:16:39.166Z,97.90
2018-09-22T03:20:03.564Z,97.90
2018-09-22T03:23:27.969Z,97.80
2018-09-22T03:26:53.640Z,97.90
2018-09-22T03:30:18.050Z,98.20
2018-09-22T03:33:42.494Z,97.70
2018-09-22T03:37:07.005Z,97.90
2018-09-22T03:40:31.420Z,97.70
2018-09-22T03:43:56.080Z,97.30
2018-09-22T03:47:20.506Z,97.20
2018-09-22T03:50:44.919Z,97.10
2018-09-22T03:54:09.371Z,97.00
2018-09-22T03:57:33.918Z,96.80
2018-09-22T04:00:58.299Z,96.70
2018-09-22T04:04:22.793Z,96.70
2018-09-22T04:07:47.184Z,96.50
2018-09-22T04:11:11.596Z,96.40
2018-09-22T04:14:36.018Z,96.50
2018-09-22T04:18:00.473Z,96.40
2018-09-22T04:21:25.020Z,96.40
2018-09-22T04:24:49.447Z,96.20
2018-09-22T04:28:13.924Z,96.30
2018-09-22T04:31:38.379Z,96.10
2018-09-22T04:35:02.827Z,96.00
2018-09-22T04:38:27.246Z,95.70
2018-09-22T04:41:51.695Z,95.70
2018-09-22T04:45:16.155Z,95.60
2018-09-22T04:48:40.684Z,95.70
2018-09-22T04:52:05.127Z,95.80
2018-09-22T04:55:29.764Z,95.90
2018-09-22T04:58:54.438Z,96.10
2018-09-22T05:02:18.890Z,95.90
2018-09-22T05:05:43.278Z,95.70
2018-09-22T05:09:11.446Z,95.80
2018-09-22T05:12:35.886Z,96.10
2018-09-22T05:16:00.313Z,95.90
2018-09-22T05:19:24.810Z,96.00
2018-09-22T05:22:49.219Z,95.90
2018-09-22T05:26:13.635Z,96.00
2018-09-22T05:29:38.186Z,96.00
2018-09-22T05:33:02.631Z,96.00
2018-09-22T05:36:27.073Z,95.80
2018-09-22T05:39:51.480Z,95.70
2018-09-22T05:43:15.907Z,95.90
2018-09-22T05:46:40.406Z,95.90
2018-09-22T05:50:04.910Z,95.80
2018-09-22T05:53:29.307Z,95.70
2018-09-22T05:56:53.765Z,95.90
2018-09-22T06:00:18.199Z,96.10
2018-09-22T06:03:42.669Z,96.00
2018-09-22T06:07:07.332Z,95.90
2018-09-22T06:10:31.816Z,95.90
2018-09-22T06:13:56.252Z,95.70
2018-09-22T06:17:20.682Z,95.70
2018-09-22T06:20:45.073Z,95.70
2018-09-22T06:24:09.592Z,95.70
2018-09-22T06:27:34.027Z,95.80
2018-09-22T06:30:58.443Z,95.80
2018-09-22T06:34:22.871Z,95.40
2018-09-22T06:37:47.335Z,95.20
2018-09-22T06:41:11.750Z,95.10
2018-09-22T06:44:36.189Z,95.10
2018-09-22T06:48:00.606Z,95.10
2018-09-22T06:51:25.069Z,95.20
2018-09-22T06:54:49.552Z,95.20
2018-09-22T06:58:13.953Z,95.10
2018-09-22T07:01:38.361Z,95.40
2018-09-22T07:05:02.756Z,94.90
2018-09-22T07:08:27.156Z,94.80
2018-09-22T07:11:51.563Z,94.30
2018-09-22T07:15:16.672Z,94.20
2018-09-22T07:18:41.330Z,94.30
2018-09-22T07:22:10.940Z,94.20
2018-09-22T07:25:35.511Z,94.10
2018-09-22T07:29:00.078Z,93.40
2018-09-22T07:32:24.526Z,93.80
2018-09-22T07:35:49.038Z,93.80
2018-09-22T07:39:13.688Z,93.70
2018-09-22T07:42:38.097Z,93.60
2018-09-22T07:46:02.554Z,93.50
2018-09-22T07:49:26.994Z,93.30
2018-09-22T07:52:51.470Z,93.10
2018-09-22T07:56:15.943Z,93.30
2018-09-22T07:59:40.392Z,92.80
2018-09-22T08:03:04.857Z,92.20
2018-09-22T08:06:29.287Z,92.20
2018-09-22T08:09:53.706Z,91.90
2018-09-22T08:13:18.157Z,91.80
2018-09-22T08:16:42.589Z,91.40
2018-09-22T08:20:07.596Z,91.30
2018-09-22T08:23:31.979Z,91.30
2018-09-22T08:26:56.431Z,91.70
2018-09-22T08:30:20.850Z,91.20
2018-09-22T08:33:45.256Z,91.00
2018-09-22T08:37:09.858Z,90.50
2018-09-22T08:40:34.142Z,90.70
2018-09-22T08:43:58.591Z,90.30
2018-09-22T08:47:23.082Z,90.40
2018-09-22T08:50:47.512Z,89.70
2018-09-22T08:54:11.900Z,89.50
2018-09-22T08:57:36.309Z,88.70
2018-09-22T09:01:00.776Z,88.50
2018-09-22T09:04:25.151Z,87.90
2018-09-22T09:07:49.601Z,87.70
2018-09-22T09:11:14.037Z,86.80
2018-09-22T09:14:38.529Z,85.50
2018-09-22T09:18:02.906Z,85.30
2018-09-22T09:21:27.374Z,85.10
2018-09-22T09:24:51.935Z,83.30
2018-09-22T09:28:16.382Z,83.40
2018-09-22T09:31:40.839Z,81.60
2018-09-22T09:35:05.349Z,78.40
2018-09-22T09:38:30.987Z,75.80
2018-09-22T09:41:55.408Z,74.90
2018-09-22T09:45:19.822Z,74.10
2018-09-22T09:48:44.257Z,74.20
2018-09-22T09:52:09.283Z,75.40
2018-09-22T09:55:33.684Z,73.00
2018-09-22T09:58:58.138Z,72.60
2018-09-22T10:02:24.922Z,71.10
2018-09-22T10:05:49.640Z,71.60
2018-09-22T10:09:14.104Z,70.90
2018-09-22T10:12:38.649Z,70.60
2018-09-22T10:16:03.146Z,70.30
2018-09-22T10:19:27.939Z,68.60
2018-09-22T10:22:52.652Z,66.60
2018-09-22T10:26:17.288Z,65.00
2018-09-22T10:29:43.085Z,60.30
2018-09-22T10:33:07.543Z,62.10
2018-09-22T10:36:32.457Z,62.40
2018-09-22T10:39:57.896Z,61.10
2018-09-22T10:43:23.644Z,60.60
2018-09-22T10:46:49.310Z,61.90
2018-09-22T10:50:14.628Z,63.10
2018-09-22T10:53:39.536Z,62.80
2018-09-22T10:57:03.925Z,64.80
2018-09-22T11:00:28.299Z,64.80
2018-09-22T11:03:52.747Z,64.30
2018-09-22T11:07:17.171Z,65.70
2018-09-22T11:10:41.623Z,67.80
2018-09-22T11:14:06.103Z,67.50
2018-09-22T11:17:30.558Z,68.80
2018-09-22T11:20:54.997Z,68.30
2018-09-22T11:24:20.431Z,68.40
2018-09-22T11:27:45.701Z,68.00
2018-09-22T11:31:10.282Z,67.30
2018-09-22T11:34:35.159Z,67.90
2018-09-22T11:37:59.961Z,67.70
2018-09-22T11:41:24.857Z,67.40
2018-09-22T11:44:49.358Z,66.40
2018-09-22T11:48:13.778Z,66.60
2018-09-22T11:51:38.763Z,66.40
2018-09-22T11:55:03.454Z,65.70
2018-09-22T11:58:28.376Z,64.60
2018-09-22T12:01:52.863Z,65.10
2018-09-22T12:05:17.346Z,67.00
2018-09-22T12:08:41.812Z,66.90
2018-09-22T12:12:06.383Z,67.80
2018-09-22T12:15:30.910Z,67.70
2018-09-22T12:18:55.404Z,69.50
2018-09-22T12:22:20.091Z,70.30
2018-09-22T12:25:44.772Z,71.70
2018-09-22T12:29:09.314Z,73.10
2018-09-22T12:32:34.042Z,73.00
2018-09-22T12:35:59.924Z,72.80
2018-09-22T12:39:24.605Z,73.10
2018-09-22T12:42:55.690Z,74.30
2018-09-22T12:46:22.594Z,74.60
2018-09-22T12:49:48.489Z,74.90
2018-09-22T12:53:13.713Z,76.00
2018-09-22T12:56:38.252Z,76.50
2018-09-22T13:00:03.300Z,77.30
2018-09-22T13:03:28.119Z,76.60
2018-09-22T13:06:52.572Z,76.40
2018-09-22T13:10:17.116Z,76.60
2018-09-22T13:13:42.010Z,76.50
2018-09-22T13:17:06.657Z,76.90
2018-09-22T13:20:31.120Z,77.60
2018-09-22T13:23:55.915Z,77.30
2018-09-22T13:27:20.711Z,75.70
2018-09-22T13:30:45.220Z,75.90
2018-09-22T13:34:09.990Z,73.00
2018-09-22T13:37:34.899Z,72.50
2018-09-22T13:40:59.863Z,75.90
2018-09-22T13:44:25.748Z,79.00
2018-09-22T13:47:50.444Z,80.40
2018-09-22T13:51:16.476Z,79.70
2018-09-22T13:54:42.198Z,80.20
2018-09-22T13:58:07.414Z,82.40
2018-09-22T14:01:33.010Z,83.20
2018-09-22T14:04:58.175Z,82.10
2018-09-22T14:08:23.663Z,83.60
2018-09-22T14:11:48.240Z,83.10
2018-09-22T14:15:12.970Z,82.10
2018-09-22T14:18:38.199Z,81.40
2018-09-22T14:22:03.441Z,80.00
2018-09-22T14:25:28.241Z,81.10
2018-09-22T14:28:54.438Z,81.30
2018-09-22T14:32:20.501Z,82.80
2018-09-22T14:35:47.468Z,83.80
2018-09-22T14:39:13.046Z,84.50
2018-09-22T14:42:37.571Z,84.20
2018-09-22T14:46:02.733Z,84.70
2018-09-22T14:49:28.063Z,85.50
2018-09-22T14:52:53.920Z,84.00
2018-09-22T14:56:18.579Z,84.00
2018-09-22T14:59:43.498Z,84.60
2018-09-22T15:03:08.196Z,85.70
2018-09-22T15:06:32.653Z,87.30
2018-09-22T15:09:57.088Z,89.00
2018-09-22T15:13:21.626Z,90.50
2018-09-22T15:16:46.077Z,92.20
2018-09-22T15:20:10.555Z,92.30
2018-09-22T15:23:35.105Z,92.40
2018-09-22T15:26:59.655Z,92.90
2018-09-22T15:30:24.173Z,93.00
2018-09-22T15:33:48.568Z,93.40
2018-09-22T15:37:12.980Z,93.30
2018-09-22T15:40:37.477Z,94.10
2018-09-22T15:44:02.047Z,93.90
2018-09-22T15:47:26.513Z,94.80
2018-09-22T15:50:50.953Z,94.90
2018-09-22T15:54:15.379Z,95.30
2018-09-22T15:57:39.797Z,95.60
2018-09-22T16:01:04.216Z,96.80
2018-09-22T16:04:29.744Z,97.10
2018-09-22T16:07:54.235Z,97.00
2018-09-22T16:11:18.680Z,97.30
2018-09-22T16:14:43.171Z,97.40
2018-09-22T16:18:07.631Z,97.20
2018-09-22T16:21:32.567Z,97.00
2018-09-22T16:24:57.012Z,97.10
2018-09-22T16:28:21.439Z,97.20
2018-09-22T16:31:45.874Z,97.60
2018-09-22T16:35:10.403Z,97.80
2018-09-22T16:38:34.805Z,98.20
2018-09-22T16:42:00.948Z,99.90
2018-09-22T16:45:25.558Z,99.80
2018-09-22T16:48:50.506Z,99.90
2018-09-22T16:52:16.376Z,99.70
2018-09-22T16:55:41.569Z,99.90
2018-09-22T16:59:07.708Z,99.90
2018-09-22T17:02:33.101Z,99.90
2018-09-22T17:05:58.133Z,99.90
2018-09-22T17:09:23.303Z,99.90
2018-09-22T17:12:48.681Z,99.90
2018-09-22T17:16:14.120Z,99.90
2018-09-22T17:19:38.703Z,99.90
2018-09-22T17:23:03.748Z,99.90
2018-09-22T17:26:28.815Z,99.90
2018-09-22T17:29:53.658Z,99.90
2018-09-22T17:33:18.423Z,99.90
2018-09-22T17:36:43.500Z,99.90
2018-09-22T17:40:08.270Z,99.90
2018-09-22T17:43:32.991Z,99.90
2018-09-22T17:46:58.094Z,99.90
2018-09-22T17:50:23.085Z,99.90
2018-09-22T17:53:48.031Z,99.90
2018-09-22T17:57:13.501Z,99.90
2018-09-22T18:00:38.998Z,99.90
2018-09-22T18:04:04.418Z,99.90
2018-09-22T18:07:30.044Z,99.90
2018-09-22T18:10:55.598Z,99.90
2018-09-22T18:14:20.650Z,99.90
2018-09-22T18:17:45.691Z,99.90
2018-09-22T18:21:10.519Z,99.90
2018-09-22T18:24:35.421Z,99.90
2018-09-22T18:28:00.928Z,99.90
2018-09-22T18:31:26.459Z,99.90
2018-09-22T18:34:51.509Z,99.90
2018-09-22T18:38:17.052Z,99.90
2018-09-22T18:41:42.489Z,99.90
2018-09-22T18:45:07.332Z,99.90
2018-09-22T18:48:32.415Z,99.90
2018-09-22T18:51:58.142Z,99.90
2018-09-22T18:55:22.862Z,99.90
2018-09-22T18:58:47.410Z,99.90
2018-09-22T19:02:11.868Z,99.90
2018-09-22T19:05:36.310Z,99.90
2018-09-22T19:09:00.881Z,99.90
2018-09-22T19:12:25.415Z,99.90
2018-09-22T19:15:51.174Z,99.90
2018-09-22T19:19:20.480Z,99.90
2018-09-22T19:22:48.049Z,99.90
2018-09-22T19:26:20.927Z,99.90
2018-09-22T19:29:54.920Z,99.90
2018-09-22T19:33:51.689Z,99.90
2018-09-22T19:37:25.109Z,99.90
2018-09-22T19:41:57.598Z,99.90
2018-09-22T19:45:39.645Z,99.90
2018-09-22T19:49:17.377Z,99.90
2018-09-22T19:52:47.635Z,99.90
2018-09-22T19:56:12.215Z,99.90
2018-09-22T19:59:36.676Z,99.90
2018-09-22T20:03:01.164Z,99.90
2018-09-22T20:06:25.629Z,99.90
2018-09-22T20:09:50.149Z,99.90
2018-09-22T20:13:14.653Z,99.90
2018-09-22T20:16:39.176Z,99.90
2018-09-22T20:20:03.846Z,99.90
2018-09-22T20:23:28.397Z,99.90
2018-09-22T20:26:53.020Z,99.90
2018-09-22T20:30:17.661Z,99.90
2018-09-22T20:33:42.148Z,99.90
2018-09-22T20:37:06.700Z,99.90
2018-09-22T20:40:31.504Z,99.90
2018-09-22T20:43:56.021Z,99.90
2018-09-22T20:47:20.841Z,99.90
2018-09-22T20:50:45.438Z,99.90
2018-09-22T20:54:09.917Z,99.90
2018-09-22T20:57:35.770Z,99.90
2018-09-22T21:01:02.019Z,99.90
2018-09-22T21:04:27.628Z,99.90
2018-09-22T21:07:52.564Z,99.90
2018-09-22T21:11:17.232Z,99.90
2018-09-22T21:14:43.757Z,99.90
2018-09-22T21:18:09.301Z,99.90
2018-09-22T21:21:35.510Z,99.90
2018-09-22T21:25:00.747Z,99.90
2018-09-22T21:28:25.917Z,99.90
2018-09-22T21:31:50.333Z,99.90
2018-09-22T21:35:14.830Z,99.90
2018-09-22T21:38:40.043Z,99.90
2018-09-22T21:42:05.764Z,99.90
2018-09-22T21:45:30.618Z,99.90
2018-09-22T21:48:56.083Z,99.90
2018-09-22T21:52:22.205Z,99.90
2018-09-22T21:55:47.564Z,99.90
2018-09-22T21:59:13.491Z,99.90
2018-09-22T22:02:38.408Z,99.90
2018-09-22T22:06:03.200Z,99.90
2018-09-22T22:09:27.956Z,99.90
2018-09-22T22:12:52.646Z,99.90
2018-09-22T22:16:17.174Z,99.90
2018-09-22T22:19:41.699Z,99.90
2018-09-22T22:23:08.680Z,99.90
2018-09-22T22:26:34.369Z,99.90
2018-09-22T22:29:59.492Z,99.90
2018-09-22T22:33:24.462Z,99.90
2018-09-22T22:36:50.450Z,99.90
2018-09-22T22:40:14.908Z,99.90
2018-09-22T22:43:39.431Z,99.90
2018-09-22T22:47:03.933Z,99.90
2018-09-22T22:50:28.515Z,99.90
2018-09-22T22:53:53.094Z,99.90
2018-09-22T22:57:17.668Z,99.90
2018-09-22T23:00:42.231Z,99.90
2018-09-22T23:04:06.972Z,99.90
2018-09-22T23:07:31.448Z,99.90
2018-09-22T23:10:55.957Z,99.90
2018-09-22T23:14:20.373Z,99.90
2018-09-22T23:17:44.862Z,99.90
2018-09-22T23:21:09.474Z,99.90
2018-09-22T23:24:33.900Z,99.90
2018-09-22T23:27:58.351Z,99.90
2018-09-22T23:31:22.857Z,99.90
2018-09-22T23:34:47.272Z,99.90
2018-09-22T23:38:11.712Z,99.90
2018-09-22T23:41:36.157Z,99.90
2018-09-22T23:45:00.660Z,99.90
2018-09-22T23:48:25.093Z,99.90
2018-09-22T23:51:49.528Z,99.90
2018-09-22T23:55:14.015Z,99.90
2018-09-22T23:58:38.573Z,99.90
